Time;durP1;ratioP1;P1;durP2;ratioP2;P2;SDS_P1;SDS_P2;PMS_P1;PMS_P2;Temp;Humidity;BMP_temperature;BMP_pressure;BME280_temperature;BME280_humidity;BME280_pressure;Samples;Min_cycle;Max_cycle;Signal;HPM_P1;HPM_P2
2023/04/19 00:00:13;;;;;;;;;;;12.00;1.00;;;;;;5088869;28;19904;-75
2023/04/19 00:02:40;;;;;;;;;;;12.00;1.00;;;;;;5078833;28;19987;-75
2023/04/19 00:05:06;;;;;;;;;;;12.00;1.00;;;;;;5075106;28;19908;-75
2023/04/19 00:07:37;;;;;;;;;;;12.00;1.00;;;;;;5085476;28;19908;-75
2023/04/19 00:10:07;;;;;;;;;;;11.90;1.00;;;;;;5075249;28;19905;-74
2023/04/19 00:12:32;;;;;;;;;;;12.00;1.00;;;;;;5075511;28;20279;-75
2023/04/19 00:14:58;;;;;;;;;;;12.00;1.00;;;;;;5074651;28;19977;-75
2023/04/19 00:17:26;;;;;;;;;;;12.00;1.00;;;;;;5077126;28;19931;-75
2023/04/19 00:19:55;;;;;;;;;;;11.90;1.00;;;;;;5089742;28;19951;-75
2023/04/19 00:22:21;;;;;;;;;;;12.00;1.00;;;;;;5085065;28;20383;-75
2023/04/19 00:24:46;;;;;;;;;;;11.90;1.00;;;;;;5075045;28;19904;-75
2023/04/19 00:27:19;;;;;;;;;;;11.90;1.00;;;;;;5075047;28;19904;-77
2023/04/19 00:32:53;;;;;;;;;;;11.90;1.00;;;;;;5082364;28;19998;-77
2023/04/19 00:35:54;;;;;;;;;;;11.90;1.00;;;;;;5094090;28;20340;-77
2023/04/19 00:38:54;;;;;;;;;;;11.90;1.00;;;;;;5082714;28;19954;-77
2023/04/19 00:41:37;;;;;;;;;;;11.90;1.00;;;;;;5074196;28;19916;-78
2023/04/19 00:44:02;;;;;;;;;;;11.90;1.00;;;;;;5073924;28;19957;-75
2023/04/19 00:46:37;;;;;;;;;;;11.90;1.00;;;;;;5074711;28;19908;-75
2023/04/19 00:49:03;;;;;;;;;;;11.90;1.00;;;;;;5085433;28;19904;-75
2023/04/19 00:51:29;;;;;;;;;;;11.90;1.00;;;;;;5093611;28;20374;-75
2023/04/19 00:53:55;;;;;;;;;;;11.80;1.00;;;;;;5090870;28;19915;-75
2023/04/19 00:56:21;;;;;;;;;;;11.80;1.00;;;;;;5079211;28;20355;-75
2023/04/19 00:58:47;;;;;;;;;;;11.80;1.00;;;;;;5082557;28;19966;-75
2023/04/19 01:01:19;;;;;;;;;;;11.80;1.00;;;;;;5073943;28;19911;-74
2023/04/19 01:03:55;;;;;;;;;;;11.70;1.00;;;;;;5087711;28;19914;-75
2023/04/19 01:06:20;;;;;;;;;;;11.70;1.00;;;;;;5094655;28;19908;-75
2023/04/19 01:08:47;;;;;;;;;;;11.70;1.00;;;;;;5093449;28;20327;-75
2023/04/19 01:11:12;;;;;;;;;;;11.60;1.00;;;;;;5093108;28;19908;-75
2023/04/19 01:13:55;;;;;;;;;;;11.60;1.00;;;;;;5078524;28;19911;-77
2023/04/19 01:16:55;;;;;;;;;;;11.60;1.00;;;;;;5085159;28;19955;-77
2023/04/19 01:22:25;;;;;;;;;;;11.60;1.00;;;;;;5084454;28;19915;-78
2023/04/19 01:25:25;;;;;;;;;;;11.60;1.00;;;;;;5093844;28;19912;-77
2023/04/19 01:28:25;;;;;;;;;;;11.60;1.00;;;;;;5074880;28;19904;-77
2023/04/19 01:31:07;;;;;;;;;;;11.50;1.00;;;;;;5074305;28;19912;-77
2023/04/19 01:36:35;;;;;;;;;;;11.50;1.00;;;;;;5073790;28;20287;-78
2023/04/19 01:39:31;;;;;;;;;;;11.50;1.00;;;;;;5082271;28;19912;-78
2023/04/19 01:45:19;;;;;;;;;;;11.60;1.00;;;;;;5083234;28;20008;-78
2023/04/19 01:48:03;;;;;;;;;;;11.50;1.00;;;;;;5073666;28;19908;-78
2023/04/19 01:50:55;;;;;;;;;;;11.50;1.00;;;;;;5073567;28;19995;-78
2023/04/19 01:56:25;;;;;;;;;;;11.50;1.00;;;;;;5077394;28;19982;-79
2023/04/19 01:58:50;;;;;;;;;;;11.40;1.00;;;;;;5089197;28;20315;-75
2023/04/19 02:01:16;;;;;;;;;;;11.40;1.00;;;;;;5085408;28;19950;-75
2023/04/19 02:03:41;;;;;;;;;;;11.40;1.00;;;;;;5083229;28;19908;-75
2023/04/19 02:06:14;;;;;;;;;;;11.40;1.00;;;;;;5084437;28;19908;-75
2023/04/19 02:08:40;;;;;;;;;;;11.40;1.00;;;;;;5077582;28;19915;-75
2023/04/19 02:11:07;;;;;;;;;;;11.40;1.00;;;;;;5077660;28;19911;-75
2023/04/19 02:13:37;;;;;;;;;;;11.40;1.00;;;;;;5078751;28;19958;-75
2023/04/19 02:16:02;;;;;;;;;;;11.40;1.00;;;;;;5091920;28;19912;-75
2023/04/19 02:18:31;;;;;;;;;;;11.40;1.00;;;;;;5097853;28;19912;-75
2023/04/19 02:20:59;;;;;;;;;;;11.40;1.00;;;;;;5078846;28;19934;-75
2023/04/19 02:23:25;;;;;;;;;;;11.40;1.00;;;;;;5077393;28;20301;-75
2023/04/19 02:25:50;;;;;;;;;;;11.40;1.00;;;;;;5077342;28;20000;-75
2023/04/19 02:28:16;;;;;;;;;;;11.40;1.00;;;;;;5077411;28;19908;-75
2023/04/19 02:30:43;;;;;;;;;;;11.40;1.00;;;;;;5091706;28;19908;-75
2023/04/19 02:33:08;;;;;;;;;;;11.40;1.00;;;;;;5071490;28;20352;-75
2023/04/19 02:35:34;;;;;;;;;;;11.30;1.00;;;;;;5076978;28;19908;-75
2023/04/19 02:38:01;;;;;;;;;;;11.30;1.00;;;;;;5077219;28;20057;-75
2023/04/19 02:40:27;;;;;;;;;;;11.20;1.00;;;;;;5076867;28;20252;-75
2023/04/19 02:42:55;;;;;;;;;;;11.20;1.00;;;;;;5077229;28;19911;-75
2023/04/19 02:45:31;;;;;;;;;;;11.10;1.00;;;;;;5076731;28;19904;-75
2023/04/19 02:47:58;;;;;;;;;;;11.00;1.00;;;;;;5076977;28;19940;-75
2023/04/19 02:50:25;;;;;;;;;;;11.00;1.00;;;;;;5083956;28;19970;-75
2023/04/19 02:52:51;;;;;;;;;;;11.00;1.00;;;;;;5096675;28;19904;-74
2023/04/19 02:55:16;;;;;;;;;;;11.00;1.00;;;;;;5096727;28;19914;-75
2023/04/19 02:57:42;;;;;;;;;;;11.00;1.00;;;;;;5096034;28;19994;-75
2023/04/19 03:06:14;;;;;;;;;;;11.00;1.00;;;;;;5091826;28;19915;-77
2023/04/19 03:08:55;;;;;;;;;;;11.00;1.00;;;;;;5096633;28;20248;-77
2023/04/19 03:11:25;;;;;;;;;;;10.90;1.00;;;;;;5079897;28;19911;-78
2023/04/19 03:13:55;;;;;;;;;;;10.90;1.00;;;;;;5082390;28;20307;-78
2023/04/19 03:16:25;;;;;;;;;;;10.90;1.00;;;;;;5094023;28;19912;-78
2023/04/19 03:22:25;;;;;;;;;;;10.80;1.00;;;;;;5075901;28;19947;-78
2023/04/19 03:25:19;;;;;;;;;;;10.80;1.00;;;;;;5082708;28;19915;-79
2023/04/19 03:27:55;;;;;;;;;;;10.80;1.00;;;;;;5096046;28;19911;-78
2023/04/19 03:30:25;;;;;;;;;;;10.90;1.00;;;;;;5095436;28;19930;-75
2023/04/19 03:32:51;;;;;;;;;;;10.90;1.00;;;;;;5094118;28;19908;-75
2023/04/19 03:35:16;;;;;;;;;;;10.90;1.00;;;;;;5077558;28;19930;-75
2023/04/19 03:37:42;;;;;;;;;;;10.90;1.00;;;;;;5075991;28;19915;-75
2023/04/19 03:40:08;;;;;;;;;;;10.90;1.00;;;;;;5075898;28;19912;-75
2023/04/19 03:42:33;;;;;;;;;;;11.00;1.00;;;;;;5075866;28;19958;-75
2023/04/19 03:45:13;;;;;;;;;;;11.00;1.00;;;;;;5075756;28;20340;-77
2023/04/19 03:47:43;;;;;;;;;;;11.00;1.00;;;;;;5078194;28;19951;-78
2023/04/19 03:50:09;;;;;;;;;;;11.10;1.00;;;;;;5093914;28;19904;-77
2023/04/19 03:52:34;;;;;;;;;;;11.10;1.00;;;;;;5075480;28;19908;-78
2023/04/19 03:55:07;;;;;;;;;;;11.00;1.00;;;;;;5090042;28;19908;-78
2023/04/19 03:57:33;;;;;;;;;;;11.00;1.00;;;;;;5075228;28;19999;-77
2023/04/19 03:59:59;;;;;;;;;;;11.10;1.00;;;;;;5077671;28;19931;-77
2023/04/19 04:02:25;;;;;;;;;;;11.10;1.00;;;;;;5074844;28;19912;-77
2023/04/19 04:04:55;;;;;;;;;;;11.20;1.00;;;;;;5075727;28;19909;-78
2023/04/19 04:07:25;;;;;;;;;;;11.20;1.00;;;;;;5074985;28;19904;-77
2023/04/19 04:09:50;;;;;;;;;;;11.20;1.00;;;;;;5074982;28;19904;-78
2023/04/19 04:12:19;;;;;;;;;;;11.30;1.00;;;;;;5091029;28;19976;-78
2023/04/19 04:14:44;;;;;;;;;;;11.20;1.00;;;;;;5083524;28;19965;-75
2023/04/19 04:17:10;;;;;;;;;;;11.20;1.00;;;;;;5092563;28;19912;-75
2023/04/19 04:19:35;;;;;;;;;;;11.20;1.00;;;;;;5093674;28;19908;-75
2023/04/19 04:22:02;;;;;;;;;;;11.20;1.00;;;;;;5078450;28;19915;-75
2023/04/19 04:24:28;;;;;;;;;;;11.20;1.00;;;;;;5079568;28;19908;-75
2023/04/19 04:26:56;;;;;;;;;;;11.20;1.00;;;;;;5089239;28;19912;-75
2023/04/19 04:29:22;;;;;;;;;;;11.20;1.00;;;;;;5088467;28;19904;-77
2023/04/19 04:31:56;;;;;;;;;;;11.30;1.00;;;;;;5093449;28;20343;-77
2023/04/19 04:34:25;;;;;;;;;;;11.30;1.00;;;;;;5084246;28;19908;-84
2023/04/19 04:36:55;;;;;;;;;;;11.30;1.00;;;;;;5077637;28;19908;-84
2023/04/19 04:39:25;;;;;;;;;;;11.30;1.00;;;;;;5064897;28;20002;-83
2023/04/19 04:41:56;;;;;;;;;;;11.30;1.00;;;;;;5061030;28;19904;-84
2023/04/19 04:44:26;;;;;;;;;;;11.30;1.00;;;;;;5062813;28;20334;-85
2023/04/19 04:46:55;;;;;;;;;;;11.30;1.00;;;;;;5057347;28;19910;-86
2023/04/19 04:49:25;;;;;;;;;;;11.30;1.00;;;;;;5059735;28;19905;-86
2023/04/19 04:51:55;;;;;;;;;;;11.30;1.00;;;;;;5058669;28;19999;-85
2023/04/19 04:54:25;;;;;;;;;;;11.30;1.00;;;;;;5067571;28;19904;-86
2023/04/19 04:57:25;;;;;;;;;;;11.30;1.00;;;;;;5066601;28;19912;-86
2023/04/19 04:59:50;;;;;;;;;;;11.30;1.00;;;;;;5057906;28;19915;-86
2023/04/19 05:02:16;;;;;;;;;;;11.40;1.00;;;;;;5073056;28;19904;-87
2023/04/19 05:07:55;;;;;;;;;;;11.40;1.00;;;;;;5074665;28;19915;-85
2023/04/19 05:10:25;;;;;;;;;;;11.30;1.00;;;;;;5056988;28;19904;-86
2023/04/19 05:12:55;;;;;;;;;;;11.30;1.00;;;;;;5074674;28;19905;-86
2023/04/19 05:15:20;;;;;;;;;;;11.30;1.00;;;;;;5057013;28;19919;-84
2023/04/19 05:17:46;;;;;;;;;;;11.40;1.00;;;;;;5074303;28;19912;-83
2023/04/19 05:20:25;;;;;;;;;;;11.40;1.00;;;;;;5056212;28;19905;-83
2023/04/19 05:22:55;;;;;;;;;;;11.40;1.00;;;;;;5056549;28;19911;-84
2023/04/19 05:25:21;;;;;;;;;;;11.40;1.00;;;;;;5056542;28;20267;-84
2023/04/19 05:28:02;;;;;;;;;;;11.50;1.00;;;;;;5074093;28;19904;-84
2023/04/19 05:30:28;;;;;;;;;;;11.50;1.00;;;;;;5059987;28;20034;-84
2023/04/19 05:33:01;;;;;;;;;;;11.60;1.00;;;;;;5094353;28;19939;-84
2023/04/19 05:38:29;;;;;;;;;;;11.60;1.00;;;;;;5074048;28;19962;-84
2023/04/19 05:44:07;;;;;;;;;;;11.80;1.00;;;;;;5073591;28;19958;-84
2023/04/19 05:49:36;;;;;;;;;;;12.00;1.00;;;;;;5077440;28;19931;-86
2023/04/19 06:01:10;;;;;;;;;;;12.20;1.00;;;;;;5084609;28;19926;-85
2023/04/19 06:04:07;;;;;;;;;;;12.40;1.00;;;;;;5057026;28;20351;-84
2023/04/19 06:06:55;;;;;;;;;;;12.40;1.00;;;;;;5056057;28;19915;-84
2023/04/19 06:13:00;;;;;;;;;;;12.30;1.00;;;;;;5073841;28;19991;-84
2023/04/19 06:15:26;;;;;;;;;;;12.20;1.00;;;;;;5073627;28;20249;-80
2023/04/19 06:17:51;;;;;;;;;;;12.20;1.00;;;;;;5055627;28;19919;-80
2023/04/19 06:29:26;;;;;;;;;;;12.40;1.00;;;;;;5090508;28;19991;-81
2023/04/19 06:35:19;;;;;;;;;;;12.50;1.00;;;;;;5093635;28;19911;-82
2023/04/19 06:43:50;;;;;;;;;;;12.70;1.00;;;;;;5076903;28;19957;-81
2023/04/19 06:49:31;;;;;;;;;;;12.80;1.00;;;;;;5082965;28;19994;-81
2023/04/19 06:55:13;;;;;;;;;;;12.70;1.00;;;;;;5075711;28;19934;-80
2023/04/19 07:00:43;;;;;;;;;;;12.70;1.00;;;;;;5083131;28;20373;-81
2023/04/19 07:06:11;;;;;;;;;;;12.90;1.00;;;;;;5076394;28;19953;-80
2023/04/19 07:14:43;;;;;;;;;;;13.10;1.00;;;;;;5075639;28;19958;-81
2023/04/19 07:17:37;;;;;;;;;;;13.20;1.00;;;;;;5087456;28;19999;-80
2023/04/19 07:23:07;;;;;;;;;;;13.50;1.00;;;;;;5080126;28;19958;-80
2023/04/19 07:28:35;;;;;;;;;;;13.50;1.00;;;;;;5082572;28;19962;-80
2023/04/19 07:34:37;;;;;;;;;;;13.60;1.00;;;;;;5096147;28;20435;-78
2023/04/19 07:40:06;;;;;;;;;;;13.90;1.00;;;;;;5095877;28;20275;-80
2023/04/19 07:45:34;;;;;;;;;;;14.10;1.00;;;;;;5075666;28;19915;-81
2023/04/19 07:51:37;;;;;;;;;;;14.20;1.00;;;;;;5080417;28;19954;-89
2023/04/19 07:57:06;;;;;;;;;;;14.10;1.00;;;;;;5096644;28;19911;-89
2023/04/19 08:02:35;;;;;;;;;;;14.20;1.00;;;;;;5076417;28;19947;-89
2023/04/19 08:08:03;;;;;;;;;;;14.00;1.00;;;;;;5096454;28;19938;-88
2023/04/19 08:13:32;;;;;;;;;;;14.40;1.00;;;;;;5096325;28;19951;-89
2023/04/19 08:22:04;;;;;;;;;;;14.60;1.00;;;;;;5076421;28;19916;-88
2023/04/19 08:24:30;;;;;;;;;;;14.50;1.00;;;;;;5057915;28;19909;-89
2023/04/19 08:29:58;;;;;;;;;;;14.50;1.00;;;;;;5075590;28;19915;-88
2023/04/19 08:35:27;;;;;;;;;;;14.90;1.00;;;;;;5095822;28;20330;-88
2023/04/19 08:40:55;;;;;;;;;;;15.30;1.00;;;;;;5087355;28;19911;-88
2023/04/19 08:55:34;;;;;;;;;;;15.80;1.00;;;;;;5074987;28;19989;-89
2023/04/19 09:01:03;;;;;;;;;;;15.80;1.00;;;;;;5087408;28;19911;-89
2023/04/19 09:06:38;;;;;;;;;;;16.00;1.00;;;;;;5075055;28;20432;-89
2023/04/19 09:12:16;;;;;;;;;;;16.20;1.00;;;;;;5074904;28;19935;-88
2023/04/19 09:14:44;;;;;;;;;;;16.40;1.00;;;;;;5056950;28;19908;-88
2023/04/19 09:17:15;;;;;;;;;;;16.60;1.00;;;;;;5057240;28;19916;-88
2023/04/19 09:23:01;;;;;;;;;;;16.80;1.00;;;;;;5074608;28;20083;-88
2023/04/19 09:31:58;;;;;;;;;;;17.00;1.00;;;;;;5089497;28;19982;-88
2023/04/19 09:37:26;;;;;;;;;;;16.50;1.00;;;;;;5095019;28;19957;-88
2023/04/19 09:42:55;;;;;;;;;;;16.20;1.00;;;;;;5074780;28;19912;-88
2023/04/19 09:54:31;;;;;;;;;;;16.90;1.00;;;;;;5074605;28;19911;-89
2023/04/19 09:57:01;;;;;;;;;;;16.90;1.00;;;;;;5056154;28;19904;-75
2023/04/19 09:59:27;;;;;;;;;;;17.10;1.00;;;;;;5074015;28;19912;-75
2023/04/19 10:01:55;;;;;;;;;;;17.40;1.00;;;;;;5082326;28;20472;-74
2023/04/19 10:04:21;;;;;;;;;;;19.00;1.00;;;;;;5094226;28;19930;-73
2023/04/19 10:06:49;;;;;;;;;;;17.50;1.00;;;;;;5094031;28;19904;-73
2023/04/19 10:09:20;;;;;;;;;;;17.20;1.00;;;;;;5094105;28;19930;-73
2023/04/19 10:11:49;;;;;;;;;;;17.10;1.00;;;;;;5088600;28;20498;-74
2023/04/19 10:14:15;;;;;;;;;;;17.00;1.00;;;;;;5075723;28;19915;-74
2023/04/19 10:16:41;;;;;;;;;;;16.80;1.00;;;;;;5076822;28;19944;-74
2023/04/19 10:19:10;;;;;;;;;;;16.60;1.00;;;;;;5077842;28;19954;-74
2023/04/19 10:21:38;;;;;;;;;;;16.50;1.00;;;;;;5081321;28;19915;-73
2023/04/19 10:24:04;;;;;;;;;;;16.30;1.00;;;;;;5097723;28;20002;-74
2023/04/19 10:26:51;;;;;;;;;;;16.30;1.00;;;;;;5097083;28;19939;-74
2023/04/19 10:29:36;;;;;;;;;;;16.30;1.00;;;;;;5097546;28;19927;-75
2023/04/19 10:32:05;;;;;;;;;;;16.10;1.00;;;;;;5096406;28;19908;-74
2023/04/19 10:38:07;;;;;;;;;;;16.10;1.00;;;;;;5097239;28;20013;-75
2023/04/19 10:43:56;;;;;;;;;;;16.10;1.00;;;;;;5087042;28;19961;-75
2023/04/19 10:46:23;;;;;;;;;;;16.00;1.00;;;;;;5097043;28;19904;-75
2023/04/19 10:48:52;;;;;;;;;;;15.90;1.00;;;;;;5085913;28;19909;-74
2023/04/19 10:51:21;;;;;;;;;;;16.00;1.00;;;;;;5076831;28;19908;-74
2023/04/19 10:54:02;;;;;;;;;;;16.00;1.00;;;;;;5081761;28;19908;-74
2023/04/19 10:56:39;;;;;;;;;;;16.00;1.00;;;;;;5097113;28;19998;-74
2023/04/19 10:59:09;;;;;;;;;;;16.00;1.00;;;;;;5096932;28;19915;-74
2023/04/19 11:01:38;;;;;;;;;;;16.10;1.00;;;;;;5096097;28;19912;-74
2023/04/19 11:04:30;;;;;;;;;;;16.10;1.00;;;;;;5092791;28;19916;-74
2023/04/19 11:07:01;;;;;;;;;;;16.00;1.00;;;;;;5036296;28;19996;-74
2023/04/19 11:09:50;;;;;;;;;;;16.00;1.00;;;;;;5034415;28;19905;-74
2023/04/19 11:12:19;;;;;;;;;;;16.00;1.00;;;;;;5047857;28;19967;-74
2023/04/19 11:14:46;;;;;;;;;;;15.80;1.00;;;;;;5053280;28;19999;-74
2023/04/19 11:17:24;;;;;;;;;;;15.80;1.00;;;;;;5034315;28;19923;-74
2023/04/19 11:19:56;;;;;;;;;;;15.80;1.00;;;;;;5034554;28;19909;-74
2023/04/19 11:22:34;;;;;;;;;;;15.90;1.00;;;;;;5046480;28;19904;-74
2023/04/19 11:25:16;;;;;;;;;;;15.90;1.00;;;;;;5066741;28;20025;-74
2023/04/19 11:27:43;;;;;;;;;;;15.60;1.00;;;;;;5063491;28;19963;-74
2023/04/19 11:30:21;;;;;;;;;;;15.70;1.00;;;;;;5053592;28;19912;-74
2023/04/19 11:32:47;;;;;;;;;;;15.90;1.00;;;;;;5053018;28;19905;-74
2023/04/19 11:35:13;;;;;;;;;;;16.00;1.00;;;;;;5053918;28;19909;-74
2023/04/19 11:37:39;;;;;;;;;;;16.10;1.00;;;;;;5053726;28;19950;-74
2023/04/19 11:40:08;;;;;;;;;;;16.00;1.00;;;;;;5053922;28;20391;-74
2023/04/19 11:42:34;;;;;;;;;;;16.00;1.00;;;;;;5034417;28;19904;-74
2023/04/19 11:45:01;;;;;;;;;;;16.10;1.00;;;;;;5075167;28;20313;-74
2023/04/19 11:47:31;;;;;;;;;;;16.10;1.00;;;;;;5076883;28;20359;-74
2023/04/19 11:50:21;;;;;;;;;;;16.20;1.00;;;;;;5076267;28;20359;-75
2023/04/19 11:56:25;;;;;;;;;;;16.40;1.00;;;;;;5033119;28;19967;-77
2023/04/19 11:58:56;;;;;;;;;;;16.40;1.00;;;;;;5014355;28;19956;-75
2023/04/19 12:01:23;;;;;;;;;;;16.30;1.00;;;;;;5020883;28;19960;-75
2023/04/19 12:03:50;;;;;;;;;;;16.40;1.00;;;;;;5031325;28;20394;-74
2023/04/19 12:06:22;;;;;;;;;;;16.40;1.00;;;;;;5033065;28;20312;-74
2023/04/19 12:08:48;;;;;;;;;;;16.40;1.00;;;;;;5033382;28;19912;-74
2023/04/19 12:11:15;;;;;;;;;;;16.40;1.00;;;;;;5032753;28;19911;-74
2023/04/19 12:14:09;;;;;;;;;;;16.50;1.00;;;;;;5031140;28;19996;-74
2023/04/19 12:22:49;;;;;;;;;;;16.70;1.00;;;;;;4955399;28;19917;-85
2023/04/19 12:25:28;;;;;;;;;;;16.70;1.00;;;;;;4939162;29;20002;-85
2023/04/19 12:28:07;;;;;;;;;;;16.70;1.00;;;;;;4941679;29;19906;-85
2023/04/19 12:31:07;;;;;;;;;;;16.90;1.00;;;;;;4987286;28;19906;-86
2023/04/19 12:33:43;;;;;;;;;;;16.90;1.00;;;;;;5001777;28;19910;-81
2023/04/19 12:39:12;;;;;;;;;;;17.10;1.00;;;;;;5012382;28;20288;-85
2023/04/19 12:41:43;;;;;;;;;;;17.10;1.00;;;;;;4997075;28;19909;-89
2023/04/19 12:44:37;;;;;;;;;;;17.10;1.00;;;;;;5006756;28;19910;-87
2023/04/19 12:47:13;;;;;;;;;;;17.10;1.00;;;;;;4994284;28;20368;-88
2023/04/19 12:55:55;;;;;;;;;;;17.20;1.00;;;;;;5074886;28;20384;-88
2023/04/19 13:01:43;;;;;;;;;;;17.00;1.00;;;;;;5074784;28;19910;-86
2023/04/19 13:07:43;;;;;;;;;;;17.00;1.00;;;;;;5074688;28;20410;-88
2023/04/19 13:13:28;;;;;;;;;;;17.10;1.00;;;;;;5081307;28;19915;-88
2023/04/19 13:15:54;;;;;;;;;;;17.20;1.00;;;;;;5064623;28;20360;-88
2023/04/19 13:18:21;;;;;;;;;;;17.30;1.00;;;;;;5056863;28;19957;-87
2023/04/19 13:20:55;;;;;;;;;;;17.30;1.00;;;;;;5063341;28;20363;-86
2023/04/19 13:23:25;;;;;;;;;;;17.40;1.00;;;;;;5056778;28;19905;-87
2023/04/19 13:28:55;;;;;;;;;;;17.30;1.00;;;;;;5074726;28;19915;-88
2023/04/19 13:34:25;;;;;;;;;;;17.30;1.00;;;;;;5075063;28;19915;-83
2023/04/19 13:42:57;;;;;;;;;;;17.30;1.00;;;;;;5086493;28;20533;-85
2023/04/19 13:48:27;;;;;;;;;;;17.40;1.00;;;;;;5080901;28;20394;-84
2023/04/19 14:00:02;;;;;;;;;;;17.50;1.00;;;;;;5078391;28;19916;-89
2023/04/19 14:05:56;;;;;;;;;;;17.10;1.00;;;;;;5092453;28;19969;-87
2023/04/19 14:14:27;;;;;;;;;;;17.20;1.00;;;;;;5078072;28;20308;-86
2023/04/19 14:17:07;;;;;;;;;;;17.30;1.00;;;;;;5077892;28;19943;-87
2023/04/19 14:19:37;;;;;;;;;;;17.20;1.00;;;;;;5061356;28;20014;-89
2023/04/19 14:28:15;;;;;;;;;;;17.30;1.00;;;;;;5098196;28;19911;-87
2023/04/19 14:43:25;;;;;;;;;;;17.50;1.00;;;;;;5084265;28;20278;-89
2023/04/19 14:48:56;;;;;;;;;;;18.30;1.00;;;;;;5094945;28;19911;-88
2023/04/19 14:54:24;;;;;;;;;;;18.90;1.00;;;;;;5077120;28;19950;-85
2023/04/19 14:59:59;;;;;;;;;;;20.40;1.00;;;;;;5088366;28;19919;-85
2023/04/19 15:08:49;;;;;;;;;;;24.40;1.00;;;;;;5095231;28;19915;-89
2023/04/19 15:11:31;;;;;;;;;;;25.20;1.00;;;;;;5077317;28;19911;-89
2023/04/19 15:14:13;;;;;;;;;;;25.40;1.00;;;;;;5075774;28;19908;-89
2023/04/19 15:19:44;;;;;;;;;;;26.40;1.00;;;;;;5076833;28;20486;-90
2023/04/19 15:22:25;;;;;;;;;;;27.40;1.00;;;;;;5072681;28;20006;-85
2023/04/19 15:27:54;;;;;;;;;;;25.20;1.00;;;;;;5076445;28;19950;-85
2023/04/19 15:30:20;;;;;;;;;;;24.70;1.00;;;;;;5076997;28;19908;-84
2023/04/19 15:35:51;;;;;;;;;;;25.00;1.00;;;;;;5078249;28;20382;-91
2023/04/19 15:38:49;;;;;;;;;;;25.10;1.00;;;;;;5061474;28;20276;-86
2023/04/19 15:41:37;;;;;;;;;;;24.60;1.00;;;;;;5075393;28;20256;-93
2023/04/19 15:47:07;;;;;;;;;;;25.60;1.00;;;;;;5076323;28;20365;-92
2023/04/19 15:53:04;;;;;;;;;;;24.30;1.00;;;;;;5084242;28;20282;-86
2023/04/19 16:01:37;;;;;;;;;;;22.90;1.00;;;;;;5075763;28;19930;-86
2023/04/19 16:07:06;;;;;;;;;;;20.80;1.00;;;;;;5084008;28;19962;-90
2023/04/19 16:12:35;;;;;;;;;;;18.80;1.00;;;;;;5094577;28;19965;-88
2023/04/19 16:27:05;;;;;;;;;;;16.70;1.00;;;;;;5075031;28;20279;-85
2023/04/19 16:30:07;;;;;;;;;;;16.60;1.00;;;;;;5056945;28;19905;-84
2023/04/19 16:35:50;;;;;;;;;;;15.90;1.00;;;;;;5091533;27;20287;-89
2023/04/19 16:41:43;;;;;;;;;;;15.80;1.00;;;;;;5072324;28;19928;-86
2023/04/19 16:44:13;;;;;;;;;;;16.20;1.00;;;;;;5067062;28;19944;-87
2023/04/19 16:46:43;;;;;;;;;;;17.10;1.00;;;;;;5076448;28;19909;-85
2023/04/19 16:49:31;;;;;;;;;;;17.70;1.00;;;;;;5087356;28;19918;-86
2023/04/19 16:51:57;;;;;;;;;;;17.60;1.00;;;;;;5070837;28;20379;-85
2023/04/19 16:54:31;;;;;;;;;;;18.10;1.00;;;;;;5053400;28;19953;-85
2023/04/19 17:00:19;;;;;;;;;;;17.70;1.00;;;;;;5054513;28;19967;-86
2023/04/19 17:05:48;;;;;;;;;;;16.80;1.00;;;;;;5075029;28;19962;-86
2023/04/19 17:08:13;;;;;;;;;;;16.40;1.00;;;;;;5065788;28;19955;-85
2023/04/19 17:11:01;;;;;;;;;;;16.20;1.00;;;;;;5064350;28;20809;-85
2023/04/19 17:13:49;;;;;;;;;;;15.80;1.00;;;;;;5071366;28;19909;-85
2023/04/19 17:16:15;;;;;;;;;;;15.60;1.00;;;;;;5084670;28;19912;-84
2023/04/19 17:18:41;;;;;;;;;;;15.30;1.00;;;;;;5089397;28;19931;-83
2023/04/19 17:21:06;;;;;;;;;;;15.00;1.00;;;;;;5070220;28;19952;-83
2023/04/19 17:23:44;;;;;;;;;;;14.80;1.00;;;;;;5051584;28;19913;-88
2023/04/19 17:35:18;;;;;;;;;;;14.00;1.00;;;;;;5108049;28;19927;-90
2023/04/19 17:38:01;;;;;;;;;;;13.80;1.00;;;;;;5093488;28;19912;-83
2023/04/19 17:40:37;;;;;;;;;;;13.60;1.00;;;;;;5082761;28;19913;-85
2023/04/19 17:49:09;;;;;;;;;;;13.20;1.00;;;;;;5080077;28;19957;-87
2023/04/19 17:51:35;;;;;;;;;;;13.10;1.00;;;;;;5055723;28;20315;-90
2023/04/19 17:54:07;;;;;;;;;;;13.00;1.00;;;;;;5056598;28;19955;-91
2023/04/19 17:59:36;;;;;;;;;;;12.80;1.00;;;;;;5056871;28;19917;-84
2023/04/19 18:05:05;;;;;;;;;;;12.60;1.00;;;;;;5061035;28;19962;-88
2023/04/19 18:07:31;;;;;;;;;;;12.50;1.00;;;;;;5075537;28;20326;-80
2023/04/19 18:09:57;;;;;;;;;;;12.30;1.00;;;;;;5075076;28;19961;-78
2023/04/19 18:12:22;;;;;;;;;;;12.30;1.00;;;;;;5076578;28;19912;-80
2023/04/19 18:14:48;;;;;;;;;;;12.20;1.00;;;;;;5073176;28;19916;-82
2023/04/19 18:17:14;;;;;;;;;;;12.10;1.00;;;;;;5056363;28;19912;-81
2023/04/19 18:19:49;;;;;;;;;;;12.10;1.00;;;;;;5057075;28;19915;-82
2023/04/19 18:22:19;;;;;;;;;;;12.00;1.00;;;;;;5057740;28;19919;-81
2023/04/19 18:25:07;;;;;;;;;;;11.90;1.00;;;;;;5076247;28;19916;-82
2023/04/19 18:27:37;;;;;;;;;;;11.80;1.00;;;;;;5073896;28;19912;-82
2023/04/19 18:30:07;;;;;;;;;;;11.60;1.00;;;;;;5075888;28;19915;-84
2023/04/19 18:32:56;;;;;;;;;;;11.50;1.00;;;;;;5073894;28;19913;-82
2023/04/19 18:47:34;;;;;;;;;;;11.00;1.00;;;;;;5056164;28;19954;-85
2023/04/19 18:53:03;;;;;;;;;;;10.80;1.00;;;;;;5056146;28;19956;-85
2023/04/19 18:58:50;;;;;;;;;;;10.50;1.00;;;;;;5074476;28;19914;-85
2023/04/19 19:01:32;;;;;;;;;;;10.40;1.00;;;;;;5057678;28;19919;-84
2023/04/19 19:10:04;;;;;;;;;;;10.00;1.00;;;;;;5075440;28;21032;-85
2023/04/19 19:12:49;;;;;;;;;;;9.90;1.00;;;;;;5057513;28;19908;-85
2023/04/19 19:18:18;;;;;;;;;;;9.80;1.00;;;;;;5074464;28;20275;-85
2023/04/19 19:21:08;;;;;;;;;;;9.80;1.00;;;;;;5057294;28;19908;-85
2023/04/19 19:23:55;;;;;;;;;;;9.60;1.00;;;;;;5075207;28;19954;-83
2023/04/19 19:26:37;;;;;;;;;;;9.70;1.00;;;;;;5075176;28;19908;-83
2023/04/19 19:29:19;;;;;;;;;;;9.60;1.00;;;;;;5090519;28;19909;-84
2023/04/19 19:31:45;;;;;;;;;;;9.50;1.00;;;;;;5074939;28;20077;-83
2023/04/19 19:34:25;;;;;;;;;;;9.50;1.00;;;;;;5059968;28;19930;-82
2023/04/19 19:37:02;;;;;;;;;;;9.50;1.00;;;;;;5055204;28;19917;-83
2023/04/19 19:39:28;;;;;;;;;;;9.50;1.00;;;;;;5055214;28;19995;-85
2023/04/19 19:42:13;;;;;;;;;;;9.40;1.00;;;;;;5054781;28;19952;-85
2023/04/19 19:50:45;;;;;;;;;;;9.30;1.00;;;;;;5054478;28;19954;-85
2023/04/19 19:56:13;;;;;;;;;;;9.20;1.00;;;;;;5063033;28;19959;-85
2023/04/19 19:58:55;;;;;;;;;;;9.10;1.00;;;;;;5090248;28;19908;-85
2023/04/19 20:01:25;;;;;;;;;;;9.00;1.00;;;;;;5054890;28;19913;-78
2023/04/19 20:04:02;;;;;;;;;;;9.00;1.00;;;;;;5064727;28;19916;-80
2023/04/19 20:06:37;;;;;;;;;;;8.90;1.00;;;;;;5073909;28;19917;-78
2023/04/19 20:09:03;;;;;;;;;;;8.90;1.00;;;;;;5072012;28;19913;-78
2023/04/19 20:11:29;;;;;;;;;;;8.80;1.00;;;;;;5074363;28;20324;-78
2023/04/19 20:14:01;;;;;;;;;;;8.70;1.00;;;;;;5085369;28;19939;-77
2023/04/19 20:16:32;;;;;;;;;;;8.70;1.00;;;;;;5095212;28;19950;-78
2023/04/19 20:19:08;;;;;;;;;;;8.60;1.00;;;;;;5087368;28;20344;-78
2023/04/19 20:21:44;;;;;;;;;;;8.60;1.00;;;;;;5077174;28;19908;-78
2023/04/19 20:24:14;;;;;;;;;;;8.50;1.00;;;;;;5094683;28;19908;-74
2023/04/19 20:26:39;;;;;;;;;;;8.40;1.00;;;;;;5094476;28;19908;-75
2023/04/19 20:29:05;;;;;;;;;;;8.40;1.00;;;;;;5077891;28;19923;-75
2023/04/19 20:31:30;;;;;;;;;;;8.40;1.00;;;;;;5073211;28;20364;-75
2023/04/19 20:33:56;;;;;;;;;;;8.30;1.00;;;;;;5076422;28;19921;-75
2023/04/19 20:36:22;;;;;;;;;;;8.30;1.00;;;;;;5058570;28;19927;-74
2023/04/19 20:38:51;;;;;;;;;;;8.20;1.00;;;;;;5076341;28;20300;-75
2023/04/19 20:41:26;;;;;;;;;;;8.20;1.00;;;;;;5064927;28;19912;-75
2023/04/19 20:44:15;;;;;;;;;;;8.10;1.00;;;;;;5036165;28;19940;-75
2023/04/19 20:46:41;;;;;;;;;;;8.10;1.00;;;;;;5067121;28;20399;-75
2023/04/19 20:49:07;;;;;;;;;;;8.10;1.00;;;;;;5054200;28;19909;-75
2023/04/19 20:51:33;;;;;;;;;;;8.10;1.00;;;;;;5072517;28;19981;-75
2023/04/19 20:53:59;;;;;;;;;;;8.00;1.00;;;;;;5094277;28;19912;-74
2023/04/19 20:56:24;;;;;;;;;;;8.00;1.00;;;;;;5081605;28;19912;-75
2023/04/19 20:59:01;;;;;;;;;;;7.90;1.00;;;;;;5083397;28;19966;-75
2023/04/19 21:01:27;;;;;;;;;;;7.90;1.00;;;;;;5081815;28;19920;-75
2023/04/19 21:03:55;;;;;;;;;;;7.80;1.00;;;;;;5091520;28;19912;-75
2023/04/19 21:06:21;;;;;;;;;;;7.80;1.00;;;;;;5070282;28;19913;-75
2023/04/19 21:08:47;;;;;;;;;;;7.70;1.00;;;;;;5053724;28;20011;-76
2023/04/19 21:11:12;;;;;;;;;;;7.60;1.00;;;;;;5078674;28;19919;-75
2023/04/19 21:13:38;;;;;;;;;;;7.60;1.00;;;;;;5054254;28;19915;-75
2023/04/19 21:16:04;;;;;;;;;;;7.50;1.00;;;;;;5058160;28;19994;-76
2023/04/19 21:18:29;;;;;;;;;;;7.40;1.00;;;;;;5057011;28;19992;-75
2023/04/19 21:20:56;;;;;;;;;;;7.30;1.00;;;;;;5075992;28;20283;-75
2023/04/19 21:23:21;;;;;;;;;;;7.30;1.00;;;;;;5060732;28;20011;-75
2023/04/19 21:26:03;;;;;;;;;;;7.20;1.00;;;;;;5063149;28;20007;-78
2023/04/19 21:28:34;;;;;;;;;;;7.10;1.00;;;;;;5077638;28;20305;-78